sensor_id;sensor_type;location;lat;lon;timestamp;P1;durP1;ratioP1;P2;durP2;ratioP2
24102;SDS011;12278;53.058;9.028;2023-02-19T00:02:09;9.10;;;6.60;;
24102;SDS011;12278;53.058;9.028;2023-02-19T00:06:10;9.83;;;7.30;;
24102;SDS011;12278;53.058;9.028;2023-02-19T00:10:10;10.87;;;6.80;;
24102;SDS011;12278;53.058;9.028;2023-02-19T00:14:13;11.97;;;6.10;;
24102;SDS011;12278;53.058;9.028;2023-02-19T00:18:16;9.53;;;6.97;;
24102;SDS011;12278;53.058;9.028;2023-02-19T00:22:16;8.37;;;6.20;;
24102;SDS011;12278;53.058;9.028;2023-02-19T00:26:17;9.43;;;6.73;;
24102;SDS011;12278;53.058;9.028;2023-02-19T00:30:18;11.63;;;7.47;;
24102;SDS011;12278;53.058;9.028;2023-02-19T00:34:18;9.77;;;7.03;;
24102;SDS011;12278;53.058;9.028;2023-02-19T00:38:19;12.50;;;7.80;;
24102;SDS011;12278;53.058;9.028;2023-02-19T00:42:20;9.57;;;6.83;;
24102;SDS011;12278;53.058;9.028;2023-02-19T00:46:25;13.80;;;7.17;;
24102;SDS011;12278;53.058;9.028;2023-02-19T00:50:36;11.23;;;7.47;;
24102;SDS011;12278;53.058;9.028;2023-02-19T00:54:37;12.80;;;7.93;;
24102;SDS011;12278;53.058;9.028;2023-02-19T00:58:38;13.77;;;9.00;;
24102;SDS011;12278;53.058;9.028;2023-02-19T01:02:39;14.07;;;9.13;;
24102;SDS011;12278;53.058;9.028;2023-02-19T01:06:39;15.90;;;9.67;;
24102;SDS011;12278;53.058;9.028;2023-02-19T01:10:43;15.03;;;9.03;;
24102;SDS011;12278;53.058;9.028;2023-02-19T01:14:45;13.40;;;9.03;;
24102;SDS011;12278;53.058;9.028;2023-02-19T01:18:47;12.10;;;8.33;;
24102;SDS011;12278;53.058;9.028;2023-02-19T01:22:48;13.03;;;8.60;;
24102;SDS011;12278;53.058;9.028;2023-02-19T01:26:48;8.73;;;5.83;;
24102;SDS011;12278;53.058;9.028;2023-02-19T01:30:49;7.57;;;5.10;;
24102;SDS011;12278;53.058;9.028;2023-02-19T01:34:51;5.50;;;4.10;;
24102;SDS011;12278;53.058;9.028;2023-02-19T01:38:52;5.30;;;4.13;;
24102;SDS011;12278;53.058;9.028;2023-02-19T01:42:52;5.50;;;3.23;;
24102;SDS011;12278;53.058;9.028;2023-02-19T01:46:53;3.87;;;3.00;;
24102;SDS011;12278;53.058;9.028;2023-02-19T01:51:02;2.97;;;2.40;;
24102;SDS011;12278;53.058;9.028;2023-02-19T01:55:09;3.23;;;2.57;;
24102;SDS011;12278;53.058;9.028;2023-02-19T01:59:11;3.30;;;2.50;;
24102;SDS011;12278;53.058;9.028;2023-02-19T02:03:22;3.20;;;2.20;;
24102;SDS011;12278;53.058;9.028;2023-02-19T02:07:23;3.23;;;2.10;;
24102;SDS011;12278;53.058;9.028;2023-02-19T02:11:47;3.30;;;2.77;;
24102;SDS011;12278;53.058;9.028;2023-02-19T02:33:13;3.57;;;2.53;;
24102;SDS011;12278;53.058;9.028;2023-02-19T02:37:24;3.63;;;2.30;;
24102;SDS011;12278;53.058;9.028;2023-02-19T02:41:27;3.60;;;2.50;;
24102;SDS011;12278;53.058;9.028;2023-02-19T02:45:29;4.07;;;2.73;;
24102;SDS011;12278;53.058;9.028;2023-02-19T02:49:34;5.07;;;2.97;;
24102;SDS011;12278;53.058;9.028;2023-02-19T02:58:21;7.07;;;2.17;;
24102;SDS011;12278;53.058;9.028;2023-02-19T03:02:25;4.63;;;2.63;;
24102;SDS011;12278;53.058;9.028;2023-02-19T03:06:30;5.80;;;2.17;;
24102;SDS011;12278;53.058;9.028;2023-02-19T03:15:23;4.57;;;2.43;;
24102;SDS011;12278;53.058;9.028;2023-02-19T03:19:48;6.00;;;2.63;;
24102;SDS011;12278;53.058;9.028;2023-02-19T03:23:51;4.23;;;2.03;;
24102;SDS011;12278;53.058;9.028;2023-02-19T03:28:11;4.37;;;2.30;;
24102;SDS011;12278;53.058;9.028;2023-02-19T03:32:26;4.90;;;2.20;;
24102;SDS011;12278;53.058;9.028;2023-02-19T03:36:33;2.60;;;1.77;;
24102;SDS011;12278;53.058;9.028;2023-02-19T03:45:15;2.67;;;1.43;;
24102;SDS011;12278;53.058;9.028;2023-02-19T03:49:21;2.80;;;1.17;;
24102;SDS011;12278;53.058;9.028;2023-02-19T03:53:29;3.33;;;1.43;;
24102;SDS011;12278;53.058;9.028;2023-02-19T04:02:02;7.47;;;1.33;;
24102;SDS011;12278;53.058;9.028;2023-02-19T04:06:16;1.53;;;1.10;;
24102;SDS011;12278;53.058;9.028;2023-02-19T04:10:22;5.13;;;1.63;;
24102;SDS011;12278;53.058;9.028;2023-02-19T04:23:29;1.37;;;1.10;;
24102;SDS011;12278;53.058;9.028;2023-02-19T04:27:37;3.50;;;1.63;;
24102;SDS011;12278;53.058;9.028;2023-02-19T04:31:39;3.17;;;1.70;;
24102;SDS011;12278;53.058;9.028;2023-02-19T04:35:41;8.03;;;2.30;;
24102;SDS011;12278;53.058;9.028;2023-02-19T04:39:41;4.17;;;2.13;;
24102;SDS011;12278;53.058;9.028;2023-02-19T04:43:42;3.60;;;1.93;;
24102;SDS011;12278;53.058;9.028;2023-02-19T04:47:43;5.27;;;2.43;;
24102;SDS011;12278;53.058;9.028;2023-02-19T04:51:43;2.63;;;1.90;;
24102;SDS011;12278;53.058;9.028;2023-02-19T04:55:44;5.20;;;3.10;;
24102;SDS011;12278;53.058;9.028;2023-02-19T04:59:47;4.67;;;2.10;;
24102;SDS011;12278;53.058;9.028;2023-02-19T05:03:47;4.10;;;2.40;;
24102;SDS011;12278;53.058;9.028;2023-02-19T05:07:48;4.13;;;2.63;;
24102;SDS011;12278;53.058;9.028;2023-02-19T05:11:49;4.23;;;2.50;;
24102;SDS011;12278;53.058;9.028;2023-02-19T05:15:56;4.63;;;2.40;;
24102;SDS011;12278;53.058;9.028;2023-02-19T05:19:59;3.87;;;2.60;;
24102;SDS011;12278;53.058;9.028;2023-02-19T05:23:59;2.63;;;1.93;;
24102;SDS011;12278;53.058;9.028;2023-02-19T05:32:16;4.73;;;1.60;;
24102;SDS011;12278;53.058;9.028;2023-02-19T05:36:16;7.67;;;2.20;;
24102;SDS011;12278;53.058;9.028;2023-02-19T05:40:18;3.40;;;1.83;;
24102;SDS011;12278;53.058;9.028;2023-02-19T05:44:19;4.37;;;2.40;;
24102;SDS011;12278;53.058;9.028;2023-02-19T05:48:20;5.00;;;2.40;;
24102;SDS011;12278;53.058;9.028;2023-02-19T05:52:20;2.23;;;1.97;;
24102;SDS011;12278;53.058;9.028;2023-02-19T05:56:31;5.47;;;3.03;;
24102;SDS011;12278;53.058;9.028;2023-02-19T06:00:33;4.77;;;2.70;;
24102;SDS011;12278;53.058;9.028;2023-02-19T06:04:34;4.00;;;2.60;;
24102;SDS011;12278;53.058;9.028;2023-02-19T06:08:35;4.17;;;2.63;;
24102;SDS011;12278;53.058;9.028;2023-02-19T06:12:37;5.40;;;3.10;;
24102;SDS011;12278;53.058;9.028;2023-02-19T06:16:38;5.57;;;3.67;;
24102;SDS011;12278;53.058;9.028;2023-02-19T06:20:39;5.87;;;3.03;;
24102;SDS011;12278;53.058;9.028;2023-02-19T06:24:41;5.13;;;3.20;;
24102;SDS011;12278;53.058;9.028;2023-02-19T06:28:44;3.63;;;3.30;;
24102;SDS011;12278;53.058;9.028;2023-02-19T06:32:46;3.20;;;2.50;;
24102;SDS011;12278;53.058;9.028;2023-02-19T06:40:51;3.87;;;2.60;;
24102;SDS011;12278;53.058;9.028;2023-02-19T06:44:52;6.10;;;2.53;;
24102;SDS011;12278;53.058;9.028;2023-02-19T06:48:53;3.03;;;2.50;;
24102;SDS011;12278;53.058;9.028;2023-02-19T06:52:53;3.83;;;3.00;;
24102;SDS011;12278;53.058;9.028;2023-02-19T06:56:54;5.20;;;2.70;;
24102;SDS011;12278;53.058;9.028;2023-02-19T07:00:59;5.47;;;2.60;;
24102;SDS011;12278;53.058;9.028;2023-02-19T07:04:59;3.97;;;3.00;;
24102;SDS011;12278;53.058;9.028;2023-02-19T07:09:00;4.70;;;2.23;;
24102;SDS011;12278;53.058;9.028;2023-02-19T07:13:02;5.30;;;2.30;;
24102;SDS011;12278;53.058;9.028;2023-02-19T07:17:03;5.73;;;3.00;;
24102;SDS011;12278;53.058;9.028;2023-02-19T07:21:07;3.97;;;2.70;;
24102;SDS011;12278;53.058;9.028;2023-02-19T07:25:27;5.70;;;2.60;;
24102;SDS011;12278;53.058;9.028;2023-02-19T07:29:27;5.23;;;3.20;;
24102;SDS011;12278;53.058;9.028;2023-02-19T07:33:28;5.83;;;3.87;;
24102;SDS011;12278;53.058;9.028;2023-02-19T07:37:37;5.60;;;3.47;;
24102;SDS011;12278;53.058;9.028;2023-02-19T07:41:41;3.97;;;2.80;;
24102;SDS011;12278;53.058;9.028;2023-02-19T07:45:42;4.80;;;3.13;;
24102;SDS011;12278;53.058;9.028;2023-02-19T07:49:42;5.17;;;2.53;;
24102;SDS011;12278;53.058;9.028;2023-02-19T07:53:43;6.87;;;2.50;;
24102;SDS011;12278;53.058;9.028;2023-02-19T07:57:45;6.27;;;2.47;;
24102;SDS011;12278;53.058;9.028;2023-02-19T08:01:46;6.27;;;2.03;;
24102;SDS011;12278;53.058;9.028;2023-02-19T08:06:05;3.73;;;2.30;;
24102;SDS011;12278;53.058;9.028;2023-02-19T08:10:06;3.50;;;2.50;;
24102;SDS011;12278;53.058;9.028;2023-02-19T08:14:32;3.53;;;2.13;;
24102;SDS011;12278;53.058;9.028;2023-02-19T08:18:33;2.43;;;1.87;;
24102;SDS011;12278;53.058;9.028;2023-02-19T08:22:33;3.07;;;2.00;;
24102;SDS011;12278;53.058;9.028;2023-02-19T08:26:34;3.23;;;1.93;;
24102;SDS011;12278;53.058;9.028;2023-02-19T08:30:35;6.88;;;1.80;;
24102;SDS011;12278;53.058;9.028;2023-02-19T08:34:37;3.83;;;1.40;;
24102;SDS011;12278;53.058;9.028;2023-02-19T08:54:42;4.50;;;1.77;;
24102;SDS011;12278;53.058;9.028;2023-02-19T08:58:44;2.70;;;1.75;;
24102;SDS011;12278;53.058;9.028;2023-02-19T09:02:45;5.60;;;1.50;;
24102;SDS011;12278;53.058;9.028;2023-02-19T09:06:47;3.75;;;1.40;;
24102;SDS011;12278;53.058;9.028;2023-02-19T09:10:58;1.98;;;1.70;;
24102;SDS011;12278;53.058;9.028;2023-02-19T09:15:00;5.00;;;1.75;;
24102;SDS011;12278;53.058;9.028;2023-02-19T09:19:01;2.13;;;1.30;;
24102;SDS011;12278;53.058;9.028;2023-02-19T09:23:02;2.15;;;1.30;;
24102;SDS011;12278;53.058;9.028;2023-02-19T09:27:03;4.07;;;1.48;;
24102;SDS011;12278;53.058;9.028;2023-02-19T09:31:05;2.05;;;1.42;;
24102;SDS011;12278;53.058;9.028;2023-02-19T09:35:08;3.25;;;1.52;;
24102;SDS011;12278;53.058;9.028;2023-02-19T09:39:09;3.65;;;1.75;;
24102;SDS011;12278;53.058;9.028;2023-02-19T09:43:14;3.40;;;1.83;;
24102;SDS011;12278;53.058;9.028;2023-02-19T09:47:23;5.05;;;2.20;;
24102;SDS011;12278;53.058;9.028;2023-02-19T09:51:25;3.75;;;2.38;;
24102;SDS011;12278;53.058;9.028;2023-02-19T09:59:39;4.30;;;2.70;;
24102;SDS011;12278;53.058;9.028;2023-02-19T10:03:45;3.20;;;2.60;;
24102;SDS011;12278;53.058;9.028;2023-02-19T10:07:48;3.35;;;2.10;;
24102;SDS011;12278;53.058;9.028;2023-02-19T10:11:55;5.60;;;2.40;;
24102;SDS011;12278;53.058;9.028;2023-02-19T10:16:03;2.97;;;1.98;;
24102;SDS011;12278;53.058;9.028;2023-02-19T10:20:08;5.45;;;1.83;;
24102;SDS011;12278;53.058;9.028;2023-02-19T10:24:20;4.50;;;2.28;;
24102;SDS011;12278;53.058;9.028;2023-02-19T10:28:29;4.25;;;2.10;;
24102;SDS011;12278;53.058;9.028;2023-02-19T10:32:32;4.35;;;1.67;;
24102;SDS011;12278;53.058;9.028;2023-02-19T10:36:40;4.78;;;1.80;;
24102;SDS011;12278;53.058;9.028;2023-02-19T10:40:44;1.40;;;1.23;;
24102;SDS011;12278;53.058;9.028;2023-02-19T10:44:53;3.42;;;1.20;;
24102;SDS011;12278;53.058;9.028;2023-02-19T10:48:58;4.07;;;1.27;;
24102;SDS011;12278;53.058;9.028;2023-02-19T10:53:20;2.78;;;1.15;;
24102;SDS011;12278;53.058;9.028;2023-02-19T10:57:26;3.67;;;1.75;;
24102;SDS011;12278;53.058;9.028;2023-02-19T11:01:30;2.88;;;1.33;;
24102;SDS011;12278;53.058;9.028;2023-02-19T11:05:31;2.28;;;1.08;;
24102;SDS011;12278;53.058;9.028;2023-02-19T11:09:38;4.70;;;1.23;;
24102;SDS011;12278;53.058;9.028;2023-02-19T11:13:41;3.80;;;1.25;;
24102;SDS011;12278;53.058;9.028;2023-02-19T11:17:42;8.20;;;1.83;;
24102;SDS011;12278;53.058;9.028;2023-02-19T11:21:43;2.38;;;1.13;;
24102;SDS011;12278;53.058;9.028;2023-02-19T11:25:51;1.25;;;0.88;;
24102;SDS011;12278;53.058;9.028;2023-02-19T11:29:53;4.03;;;0.90;;
24102;SDS011;12278;53.058;9.028;2023-02-19T11:37:58;4.03;;;1.15;;
24102;SDS011;12278;53.058;9.028;2023-02-19T11:55:40;3.90;;;1.17;;
24102;SDS011;12278;53.058;9.028;2023-02-19T11:59:27;3.80;;;0.80;;
24102;SDS011;12278;53.058;9.028;2023-02-19T12:38:21;0.73;;;0.55;;
24102;SDS011;12278;53.058;9.028;2023-02-19T12:55:10;2.30;;;0.80;;
24102;SDS011;12278;53.058;9.028;2023-02-19T13:03:32;5.53;;;0.87;;
24102;SDS011;12278;53.058;9.028;2023-02-19T13:07:39;4.55;;;0.85;;
24102;SDS011;12278;53.058;9.028;2023-02-19T13:11:56;3.80;;;0.70;;
24102;SDS011;12278;53.058;9.028;2023-02-19T13:16:02;1.85;;;0.65;;
24102;SDS011;12278;53.058;9.028;2023-02-19T13:20:14;3.60;;;1.17;;
24102;SDS011;12278;53.058;9.028;2023-02-19T13:24:25;2.10;;;0.57;;
24102;SDS011;12278;53.058;9.028;2023-02-19T13:28:51;1.40;;;0.70;;
24102;SDS011;12278;53.058;9.028;2023-02-19T13:41:49;1.33;;;0.70;;
24102;SDS011;12278;53.058;9.028;2023-02-19T13:45:59;1.80;;;0.75;;
24102;SDS011;12278;53.058;9.028;2023-02-19T13:50:05;1.30;;;0.88;;
24102;SDS011;12278;53.058;9.028;2023-02-19T13:54:32;3.80;;;0.93;;
24102;SDS011;12278;53.058;9.028;2023-02-19T13:58:52;2.60;;;0.90;;
24102;SDS011;12278;53.058;9.028;2023-02-19T14:15:47;4.10;;;0.75;;
24102;SDS011;12278;53.058;9.028;2023-02-19T14:23:56;0.80;;;0.60;;
24102;SDS011;12278;53.058;9.028;2023-02-19T14:32:11;5.95;;;1.27;;
24102;SDS011;12278;53.058;9.028;2023-02-19T14:37:03;4.07;;;1.67;;
24102;SDS011;12278;53.058;9.028;2023-02-19T14:40:47;2.80;;;1.17;;
24102;SDS011;12278;53.058;9.028;2023-02-19T14:44:49;3.55;;;1.45;;
24102;SDS011;12278;53.058;9.028;2023-02-19T14:52:53;3.17;;;1.20;;
24102;SDS011;12278;53.058;9.028;2023-02-19T14:56:57;1.55;;;0.80;;
24102;SDS011;12278;53.058;9.028;2023-02-19T15:00:59;2.67;;;1.15;;
24102;SDS011;12278;53.058;9.028;2023-02-19T15:05:05;4.78;;;1.42;;
24102;SDS011;12278;53.058;9.028;2023-02-19T15:09:29;1.20;;;0.93;;
24102;SDS011;12278;53.058;9.028;2023-02-19T15:13:32;2.25;;;1.00;;
24102;SDS011;12278;53.058;9.028;2023-02-19T15:17:34;3.85;;;0.98;;
24102;SDS011;12278;53.058;9.028;2023-02-19T15:21:39;3.63;;;1.17;;
24102;SDS011;12278;53.058;9.028;2023-02-19T15:25:45;4.30;;;1.05;;
24102;SDS011;12278;53.058;9.028;2023-02-19T15:29:48;3.83;;;1.23;;
24102;SDS011;12278;53.058;9.028;2023-02-19T15:33:50;0.80;;;0.43;;
24102;SDS011;12278;53.058;9.028;2023-02-19T15:37:51;2.42;;;0.73;;
24102;SDS011;12278;53.058;9.028;2023-02-19T15:41:57;4.95;;;1.73;;
24102;SDS011;12278;53.058;9.028;2023-02-19T15:46:01;2.83;;;1.10;;
24102;SDS011;12278;53.058;9.028;2023-02-19T15:50:21;2.73;;;1.13;;
24102;SDS011;12278;53.058;9.028;2023-02-19T15:54:35;7.93;;;1.13;;
24102;SDS011;12278;53.058;9.028;2023-02-19T15:58:52;3.43;;;1.40;;
24102;SDS011;12278;53.058;9.028;2023-02-19T16:02:56;6.23;;;1.80;;
24102;SDS011;12278;53.058;9.028;2023-02-19T16:06:58;4.05;;;1.50;;
24102;SDS011;12278;53.058;9.028;2023-02-19T16:11:01;6.17;;;1.90;;
24102;SDS011;12278;53.058;9.028;2023-02-19T16:15:20;3.53;;;1.53;;
24102;SDS011;12278;53.058;9.028;2023-02-19T16:19:31;3.23;;;1.30;;
24102;SDS011;12278;53.058;9.028;2023-02-19T16:23:42;4.90;;;1.80;;
24102;SDS011;12278;53.058;9.028;2023-02-19T16:27:46;2.23;;;1.90;;
24102;SDS011;12278;53.058;9.028;2023-02-19T16:31:49;4.20;;;2.13;;
24102;SDS011;12278;53.058;9.028;2023-02-19T16:35:52;1.47;;;1.13;;
24102;SDS011;12278;53.058;9.028;2023-02-19T16:44:41;5.00;;;2.90;;
24102;SDS011;12278;53.058;9.028;2023-02-19T16:48:35;2.07;;;1.50;;
24102;SDS011;12278;53.058;9.028;2023-02-19T16:52:36;2.20;;;1.30;;
24102;SDS011;12278;53.058;9.028;2023-02-19T16:56:49;2.77;;;2.10;;
24102;SDS011;12278;53.058;9.028;2023-02-19T17:00:55;4.67;;;1.97;;
24102;SDS011;12278;53.058;9.028;2023-02-19T17:04:59;6.03;;;2.63;;
24102;SDS011;12278;53.058;9.028;2023-02-19T17:09:00;2.97;;;2.67;;
24102;SDS011;12278;53.058;9.028;2023-02-19T17:13:01;4.30;;;3.03;;
24102;SDS011;12278;53.058;9.028;2023-02-19T17:17:02;5.67;;;2.53;;
24102;SDS011;12278;53.058;9.028;2023-02-19T17:21:09;7.40;;;3.30;;
24102;SDS011;12278;53.058;9.028;2023-02-19T17:29:45;4.27;;;2.80;;
24102;SDS011;12278;53.058;9.028;2023-02-19T17:33:46;5.60;;;3.80;;
24102;SDS011;12278;53.058;9.028;2023-02-19T17:37:47;4.90;;;2.80;;
24102;SDS011;12278;53.058;9.028;2023-02-19T17:41:48;4.27;;;3.47;;
24102;SDS011;12278;53.058;9.028;2023-02-19T17:45:49;5.70;;;3.47;;
24102;SDS011;12278;53.058;9.028;2023-02-19T17:49:50;9.47;;;4.70;;
24102;SDS011;12278;53.058;9.028;2023-02-19T17:53:51;5.47;;;4.30;;
24102;SDS011;12278;53.058;9.028;2023-02-19T17:57:52;4.37;;;2.83;;
24102;SDS011;12278;53.058;9.028;2023-02-19T18:01:53;4.30;;;2.63;;
24102;SDS011;12278;53.058;9.028;2023-02-19T18:05:54;3.23;;;2.63;;
24102;SDS011;12278;53.058;9.028;2023-02-19T18:09:54;3.27;;;2.87;;
24102;SDS011;12278;53.058;9.028;2023-02-19T18:13:55;4.03;;;3.00;;
24102;SDS011;12278;53.058;9.028;2023-02-19T18:17:56;6.60;;;3.33;;
24102;SDS011;12278;53.058;9.028;2023-02-19T18:21:57;6.30;;;3.77;;
24102;SDS011;12278;53.058;9.028;2023-02-19T18:26:02;3.37;;;3.00;;
24102;SDS011;12278;53.058;9.028;2023-02-19T18:30:02;5.60;;;3.53;;
24102;SDS011;12278;53.058;9.028;2023-02-19T18:34:04;5.47;;;3.33;;
24102;SDS011;12278;53.058;9.028;2023-02-19T18:38:12;7.10;;;2.83;;
24102;SDS011;12278;53.058;9.028;2023-02-19T18:42:17;7.67;;;3.37;;
24102;SDS011;12278;53.058;9.028;2023-02-19T18:46:20;3.53;;;3.20;;
24102;SDS011;12278;53.058;9.028;2023-02-19T18:50:21;3.90;;;3.00;;
24102;SDS011;12278;53.058;9.028;2023-02-19T18:54:21;4.20;;;3.33;;
24102;SDS011;12278;53.058;9.028;2023-02-19T18:58:27;3.93;;;2.83;;
24102;SDS011;12278;53.058;9.028;2023-02-19T19:02:28;5.37;;;2.80;;
24102;SDS011;12278;53.058;9.028;2023-02-19T19:06:29;4.30;;;2.70;;
24102;SDS011;12278;53.058;9.028;2023-02-19T19:10:30;4.83;;;2.47;;
24102;SDS011;12278;53.058;9.028;2023-02-19T19:14:31;5.07;;;3.07;;
24102;SDS011;12278;53.058;9.028;2023-02-19T19:18:36;4.17;;;3.50;;
24102;SDS011;12278;53.058;9.028;2023-02-19T19:22:44;5.60;;;3.67;;
24102;SDS011;12278;53.058;9.028;2023-02-19T19:26:47;4.83;;;3.47;;
24102;SDS011;12278;53.058;9.028;2023-02-19T19:30:49;6.27;;;4.23;;
24102;SDS011;12278;53.058;9.028;2023-02-19T19:34:50;5.30;;;2.83;;
24102;SDS011;12278;53.058;9.028;2023-02-19T19:38:53;7.03;;;3.03;;
24102;SDS011;12278;53.058;9.028;2023-02-19T19:42:54;7.57;;;3.77;;
24102;SDS011;12278;53.058;9.028;2023-02-19T19:46:55;4.93;;;3.83;;
24102;SDS011;12278;53.058;9.028;2023-02-19T19:50:56;6.57;;;2.90;;
24102;SDS011;12278;53.058;9.028;2023-02-19T19:54:58;6.13;;;2.67;;
24102;SDS011;12278;53.058;9.028;2023-02-19T19:58:58;5.57;;;2.57;;
24102;SDS011;12278;53.058;9.028;2023-02-19T20:02:59;4.60;;;3.00;;
24102;SDS011;12278;53.058;9.028;2023-02-19T20:07:00;5.77;;;2.63;;
24102;SDS011;12278;53.058;9.028;2023-02-19T20:11:02;4.77;;;2.60;;
24102;SDS011;12278;53.058;9.028;2023-02-19T20:15:03;3.03;;;2.43;;
24102;SDS011;12278;53.058;9.028;2023-02-19T20:19:04;4.73;;;2.67;;
24102;SDS011;12278;53.058;9.028;2023-02-19T20:23:05;6.63;;;3.00;;
24102;SDS011;12278;53.058;9.028;2023-02-19T20:27:06;3.50;;;1.93;;
24102;SDS011;12278;53.058;9.028;2023-02-19T20:31:10;4.20;;;2.50;;
24102;SDS011;12278;53.058;9.028;2023-02-19T20:35:10;5.23;;;2.80;;
24102;SDS011;12278;53.058;9.028;2023-02-19T20:39:11;4.93;;;2.77;;
24102;SDS011;12278;53.058;9.028;2023-02-19T20:43:20;6.03;;;2.37;;
24102;SDS011;12278;53.058;9.028;2023-02-19T20:47:21;3.40;;;2.97;;
24102;SDS011;12278;53.058;9.028;2023-02-19T20:51:22;2.97;;;1.80;;
24102;SDS011;12278;53.058;9.028;2023-02-19T20:55:23;4.17;;;2.60;;
24102;SDS011;12278;53.058;9.028;2023-02-19T20:59:25;2.93;;;2.53;;
24102;SDS011;12278;53.058;9.028;2023-02-19T21:03:29;8.43;;;3.93;;
24102;SDS011;12278;53.058;9.028;2023-02-19T21:11:34;5.93;;;2.97;;
24102;SDS011;12278;53.058;9.028;2023-02-19T21:15:43;7.07;;;3.27;;
24102;SDS011;12278;53.058;9.028;2023-02-19T21:19:47;3.83;;;2.80;;
24102;SDS011;12278;53.058;9.028;2023-02-19T21:23:48;3.90;;;3.23;;
24102;SDS011;12278;53.058;9.028;2023-02-19T21:27:49;5.47;;;3.73;;
24102;SDS011;12278;53.058;9.028;2023-02-19T21:31:51;9.23;;;3.00;;
24102;SDS011;12278;53.058;9.028;2023-02-19T21:35:53;3.10;;;2.90;;
24102;SDS011;12278;53.058;9.028;2023-02-19T21:39:56;6.50;;;3.33;;
24102;SDS011;12278;53.058;9.028;2023-02-19T21:44:02;4.47;;;3.00;;
24102;SDS011;12278;53.058;9.028;2023-02-19T21:48:03;8.30;;;3.83;;
24102;SDS011;12278;53.058;9.028;2023-02-19T21:52:04;6.43;;;3.63;;
24102;SDS011;12278;53.058;9.028;2023-02-19T21:56:05;8.00;;;3.63;;
24102;SDS011;12278;53.058;9.028;2023-02-19T22:00:06;5.77;;;3.33;;
24102;SDS011;12278;53.058;9.028;2023-02-19T22:04:09;4.73;;;3.40;;
24102;SDS011;12278;53.058;9.028;2023-02-19T22:08:12;4.67;;;3.33;;
24102;SDS011;12278;53.058;9.028;2023-02-19T22:12:14;5.23;;;2.67;;
24102;SDS011;12278;53.058;9.028;2023-02-19T22:16:16;3.87;;;3.10;;
24102;SDS011;12278;53.058;9.028;2023-02-19T22:20:24;7.00;;;3.90;;
24102;SDS011;12278;53.058;9.028;2023-02-19T22:24:25;3.83;;;2.93;;
24102;SDS011;12278;53.058;9.028;2023-02-19T22:28:25;4.10;;;2.90;;
24102;SDS011;12278;53.058;9.028;2023-02-19T22:32:26;3.03;;;2.73;;
24102;SDS011;12278;53.058;9.028;2023-02-19T22:36:27;3.97;;;3.00;;
24102;SDS011;12278;53.058;9.028;2023-02-19T22:40:32;7.27;;;3.47;;
24102;SDS011;12278;53.058;9.028;2023-02-19T22:44:32;4.87;;;2.93;;
24102;SDS011;12278;53.058;9.028;2023-02-19T22:48:34;2.90;;;2.20;;
24102;SDS011;12278;53.058;9.028;2023-02-19T22:52:34;3.93;;;2.50;;
24102;SDS011;12278;53.058;9.028;2023-02-19T22:56:35;8.10;;;3.20;;
24102;SDS011;12278;53.058;9.028;2023-02-19T23:00:36;3.53;;;2.20;;
24102;SDS011;12278;53.058;9.028;2023-02-19T23:04:36;4.80;;;3.53;;
24102;SDS011;12278;53.058;9.028;2023-02-19T23:08:37;4.13;;;3.20;;
24102;SDS011;12278;53.058;9.028;2023-02-19T23:12:43;5.53;;;2.90;;
24102;SDS011;12278;53.058;9.028;2023-02-19T23:16:43;7.53;;;3.77;;
24102;SDS011;12278;53.058;9.028;2023-02-19T23:20:44;2.93;;;2.63;;
24102;SDS011;12278;53.058;9.028;2023-02-19T23:24:45;4.20;;;2.60;;
24102;SDS011;12278;53.058;9.028;2023-02-19T23:28:46;4.67;;;2.77;;
24102;SDS011;12278;53.058;9.028;2023-02-19T23:32:46;3.73;;;2.90;;
24102;SDS011;12278;53.058;9.028;2023-02-19T23:36:48;6.47;;;3.30;;
24102;SDS011;12278;53.058;9.028;2023-02-19T23:40:49;4.23;;;2.57;;
24102;SDS011;12278;53.058;9.028;2023-02-19T23:45:00;3.87;;;2.97;;
24102;SDS011;12278;53.058;9.028;2023-02-19T23:49:00;4.17;;;2.93;;
24102;SDS011;12278;53.058;9.028;2023-02-19T23:53:01;5.53;;;3.70;;
24102;SDS011;12278;53.058;9.028;2023-02-19T23:57:02;3.53;;;2.90;;
